createdAt,value
2017-08-10T00:02:11.432Z,73.40
2017-08-10T00:04:38.935Z,72.60
2017-08-10T00:07:06.464Z,72.50
2017-08-10T00:09:33.964Z,71.50
2017-08-10T00:12:01.469Z,71.60
2017-08-10T00:14:29.007Z,70.40
2017-08-10T00:16:57.295Z,70.50
2017-08-10T00:19:24.878Z,70.50
2017-08-10T00:21:52.394Z,72.40
2017-08-10T00:24:20.659Z,75.90
2017-08-10T00:26:48.183Z,75.90
2017-08-10T00:29:15.730Z,77.10
2017-08-10T00:31:43.242Z,77.90
2017-08-10T00:34:11.148Z,78.40
2017-08-10T00:36:38.648Z,78.50
2017-08-10T00:39:06.173Z,78.70
2017-08-10T00:41:33.759Z,78.80
2017-08-10T00:44:01.315Z,79.20
2017-08-10T00:46:28.828Z,79.50
2017-08-10T00:48:56.393Z,79.50
2017-08-10T00:51:23.902Z,79.30
2017-08-10T00:53:51.418Z,79.20
2017-08-10T00:56:18.970Z,79.10
2017-08-10T00:58:46.477Z,79.00
2017-08-10T01:01:14.000Z,78.20
2017-08-10T01:03:41.529Z,77.50
2017-08-10T01:06:09.815Z,76.60
2017-08-10T01:08:37.396Z,76.60
2017-08-10T01:11:04.901Z,76.80
2017-08-10T01:13:32.518Z,77.00
2017-08-10T01:16:00.044Z,78.00
2017-08-10T01:18:27.545Z,78.70
2017-08-10T01:20:55.044Z,78.40
2017-08-10T01:23:23.354Z,79.70
2017-08-10T01:25:50.871Z,79.00
2017-08-10T01:28:18.396Z,79.50
2017-08-10T01:30:45.896Z,79.20
2017-08-10T01:33:14.160Z,79.50
2017-08-10T01:35:41.705Z,79.50
2017-08-10T01:38:09.210Z,79.10
2017-08-10T01:40:36.734Z,80.00
2017-08-10T01:43:04.276Z,80.70
2017-08-10T01:45:31.773Z,80.80
2017-08-10T01:48:00.055Z,80.80
2017-08-10T01:50:28.461Z,81.70
2017-08-10T01:52:56.102Z,81.70
2017-08-10T01:55:23.607Z,82.00
2017-08-10T01:57:51.132Z,82.00
2017-08-10T02:00:18.651Z,82.20
2017-08-10T02:02:46.954Z,81.70
2017-08-10T02:05:14.489Z,81.70
2017-08-10T02:07:42.016Z,81.70
2017-08-10T02:10:09.516Z,82.20
2017-08-10T02:12:37.050Z,82.00
2017-08-10T02:15:05.349Z,81.60
2017-08-10T02:17:32.908Z,81.50
2017-08-10T02:20:00.412Z,82.20
2017-08-10T02:22:27.947Z,83.10
2017-08-10T02:24:55.489Z,83.40
2017-08-10T02:27:23.001Z,83.80
2017-08-10T02:29:50.529Z,83.80
2017-08-10T02:32:18.180Z,84.10
2017-08-10T02:34:45.698Z,84.10
2017-08-10T02:37:13.986Z,83.80
2017-08-10T02:39:41.523Z,83.80
2017-08-10T02:42:09.788Z,84.30
2017-08-10T02:44:37.295Z,84.60
2017-08-10T02:47:04.850Z,84.30
2017-08-10T02:49:32.366Z,83.70
2017-08-10T02:51:59.879Z,84.30
2017-08-10T02:54:27.422Z,84.60
2017-08-10T02:56:54.967Z,85.00
2017-08-10T02:59:23.228Z,84.50
2017-08-10T03:01:50.762Z,84.50
2017-08-10T03:04:18.260Z,84.90
2017-08-10T03:06:46.553Z,84.40
2017-08-10T03:09:14.060Z,84.40
2017-08-10T03:11:41.568Z,85.10
2017-08-10T03:14:09.111Z,85.00
2017-08-10T03:16:37.376Z,86.10
2017-08-10T03:19:05.649Z,86.20
2017-08-10T03:21:33.940Z,86.30
2017-08-10T03:24:02.220Z,86.70
2017-08-10T03:26:29.778Z,86.60
2017-08-10T03:28:57.278Z,86.60
2017-08-10T03:31:24.819Z,86.10
2017-08-10T03:33:52.366Z,85.60
2017-08-10T03:36:19.892Z,85.40
2017-08-10T03:38:47.392Z,84.80
2017-08-10T03:41:14.939Z,85.10
2017-08-10T03:43:42.445Z,85.20
2017-08-10T03:46:10.075Z,85.50
2017-08-10T03:48:37.608Z,85.50
2017-08-10T03:51:05.190Z,85.10
2017-08-10T03:53:32.705Z,85.00
2017-08-10T03:56:01.017Z,85.60
2017-08-10T03:58:28.523Z,85.20
2017-08-10T04:00:56.024Z,85.70
2017-08-10T04:03:23.567Z,85.90
2017-08-10T04:05:51.854Z,85.80
2017-08-10T04:08:19.384Z,85.80
2017-08-10T04:10:46.883Z,85.10
2017-08-10T04:13:14.403Z,84.90
2017-08-10T04:15:42.704Z,84.10
2017-08-10T04:18:10.208Z,84.10
2017-08-10T04:20:37.726Z,84.40
2017-08-10T04:23:05.302Z,84.70
2017-08-10T04:25:32.800Z,84.40
2017-08-10T04:28:00.317Z,84.00
2017-08-10T04:30:27.857Z,83.90
2017-08-10T04:32:55.393Z,83.30
2017-08-10T04:35:23.664Z,84.30
2017-08-10T04:37:51.195Z,84.30
2017-08-10T04:40:18.696Z,84.60
2017-08-10T04:42:46.208Z,84.90
2017-08-10T04:45:13.748Z,85.10
2017-08-10T04:47:41.266Z,85.20
2017-08-10T04:50:09.540Z,85.60
2017-08-10T04:52:37.854Z,85.60
2017-08-10T04:55:05.352Z,85.60
2017-08-10T04:57:32.862Z,85.80
2017-08-10T05:00:00.432Z,85.60
2017-08-10T05:02:27.992Z,85.40
2017-08-10T05:04:55.548Z,85.40
2017-08-10T05:07:23.056Z,85.80
2017-08-10T05:09:50.670Z,85.20
2017-08-10T05:12:18.274Z,85.00
2017-08-10T05:14:45.794Z,84.50
2017-08-10T05:17:13.351Z,85.10
2017-08-10T05:19:40.874Z,85.30
2017-08-10T05:22:08.380Z,85.00
2017-08-10T05:24:35.913Z,84.80
2017-08-10T05:27:03.420Z,83.90
2017-08-10T05:29:30.928Z,83.50
2017-08-10T05:31:58.466Z,83.80
2017-08-10T05:34:26.755Z,81.80
2017-08-10T05:36:54.292Z,81.80
2017-08-10T05:39:22.587Z,81.10
2017-08-10T05:41:50.087Z,81.10
2017-08-10T05:44:17.612Z,82.30
2017-08-10T05:46:45.139Z,80.30
2017-08-10T05:49:13.408Z,77.60
2017-08-10T05:51:40.953Z,77.60
2017-08-10T05:54:08.472Z,76.20
2017-08-10T05:56:35.994Z,78.90
2017-08-10T05:59:04.302Z,77.60
2017-08-10T06:01:31.824Z,77.60
2017-08-10T06:04:00.139Z,76.30
2017-08-10T06:06:27.667Z,76.30
2017-08-10T06:08:55.950Z,74.00
2017-08-10T06:11:24.248Z,73.40
2017-08-10T06:13:51.817Z,73.30
2017-08-10T06:16:19.321Z,73.50
2017-08-10T06:18:46.840Z,74.00
2017-08-10T06:21:14.358Z,74.30
2017-08-10T06:23:42.674Z,70.30
2017-08-10T06:26:10.184Z,70.30
2017-08-10T06:28:38.461Z,70.70
2017-08-10T06:31:06.766Z,70.30
2017-08-10T06:33:34.282Z,70.30
2017-08-10T06:36:01.800Z,70.60
2017-08-10T06:38:29.331Z,71.40
2017-08-10T06:40:56.850Z,70.80
2017-08-10T06:43:25.875Z,70.40
2017-08-10T06:45:54.190Z,69.90
2017-08-10T06:48:21.710Z,69.90
2017-08-10T06:50:50.122Z,69.80
2017-08-10T06:53:17.654Z,69.80
2017-08-10T06:55:45.152Z,69.70
2017-08-10T06:58:12.676Z,70.60
2017-08-10T07:00:40.184Z,70.10
2017-08-10T07:03:07.702Z,70.60
2017-08-10T07:05:35.233Z,69.80
2017-08-10T07:08:03.510Z,70.60
2017-08-10T07:10:31.786Z,71.50
2017-08-10T07:13:00.082Z,71.70
2017-08-10T07:15:27.594Z,71.70
2017-08-10T07:17:55.139Z,71.20
2017-08-10T07:20:22.635Z,71.10
2017-08-10T07:22:50.908Z,70.80
2017-08-10T07:25:19.206Z,70.50
2017-08-10T07:27:46.722Z,70.40
2017-08-10T07:30:14.261Z,70.30
2017-08-10T07:32:41.778Z,69.50
2017-08-10T07:35:09.359Z,70.40
2017-08-10T07:37:36.880Z,70.30
2017-08-10T07:40:05.158Z,70.20
2017-08-10T07:42:33.453Z,69.90
2017-08-10T07:45:00.982Z,69.80
2017-08-10T07:47:28.485Z,68.70
2017-08-10T07:49:56.965Z,69.30
2017-08-10T07:52:24.465Z,66.50
2017-08-10T07:54:51.964Z,67.10
2017-08-10T07:57:19.518Z,65.70
2017-08-10T07:59:47.037Z,66.60
2017-08-10T08:02:14.556Z,64.00
2017-08-10T08:04:42.142Z,64.00
2017-08-10T08:07:09.654Z,63.60
2017-08-10T08:09:37.156Z,63.50
2017-08-10T08:12:04.694Z,61.30
2017-08-10T08:14:32.215Z,60.90
2017-08-10T08:17:00.497Z,57.30
2017-08-10T08:19:28.791Z,56.30
2017-08-10T08:21:56.289Z,56.20
2017-08-10T08:24:23.801Z,54.30
2017-08-10T08:26:51.342Z,53.20
2017-08-10T08:29:19.608Z,53.10
2017-08-10T08:31:47.904Z,52.30
2017-08-10T08:34:15.432Z,51.60
2017-08-10T08:36:42.951Z,51.90
2017-08-10T08:39:10.475Z,52.00
2017-08-10T08:41:38.786Z,52.40
2017-08-10T08:44:06.284Z,52.30
2017-08-10T08:46:33.799Z,52.20
2017-08-10T08:49:01.351Z,50.10
2017-08-10T08:51:28.867Z,50.30
2017-08-10T08:53:56.370Z,51.60
2017-08-10T08:56:24.035Z,50.70
2017-08-10T08:58:51.537Z,50.60
2017-08-10T09:01:19.054Z,50.40
2017-08-10T09:03:46.588Z,50.90
2017-08-10T09:06:14.172Z,50.50
2017-08-10T09:08:41.728Z,50.00
2017-08-10T09:11:09.287Z,49.90
2017-08-10T09:13:36.799Z,48.70
2017-08-10T09:16:05.066Z,47.10
2017-08-10T09:18:32.680Z,47.40
2017-08-10T09:21:00.196Z,48.20
2017-08-10T09:23:28.506Z,48.50
2017-08-10T09:25:56.009Z,48.50
2017-08-10T09:28:23.525Z,49.00
2017-08-10T09:30:51.071Z,49.10
2017-08-10T09:33:18.591Z,50.70
2017-08-10T09:35:46.092Z,50.80
2017-08-10T09:38:13.641Z,49.40
2017-08-10T09:40:41.159Z,51.50
2017-08-10T09:43:08.661Z,50.80
2017-08-10T09:45:36.207Z,48.80
2017-08-10T09:48:04.495Z,48.30
2017-08-10T09:50:32.010Z,48.20
2017-08-10T09:52:59.532Z,49.00
2017-08-10T09:55:27.033Z,47.40
2017-08-10T09:57:54.554Z,45.80
2017-08-10T10:00:22.090Z,45.60
2017-08-10T10:02:49.592Z,41.60
2017-08-10T10:05:17.121Z,39.40
2017-08-10T10:07:44.638Z,36.00
2017-08-10T10:10:12.904Z,35.50
2017-08-10T10:12:40.451Z,35.50
2017-08-10T10:15:07.948Z,35.60
2017-08-10T10:17:35.535Z,36.10
2017-08-10T10:20:03.085Z,35.60
2017-08-10T10:22:30.651Z,35.70
2017-08-10T10:24:58.167Z,36.10
2017-08-10T10:27:26.487Z,36.70
2017-08-10T10:29:53.989Z,36.70
2017-08-10T10:32:21.491Z,34.30
2017-08-10T10:34:49.015Z,35.70
2017-08-10T10:37:16.512Z,33.00
2017-08-10T10:39:44.011Z,32.40
2017-08-10T10:42:11.548Z,32.30
2017-08-10T10:44:39.053Z,33.30
2017-08-10T10:47:07.343Z,34.00
2017-08-10T10:49:34.864Z,34.00
2017-08-10T10:52:02.374Z,34.50
2017-08-10T10:54:29.909Z,37.50
2017-08-10T10:56:58.187Z,38.80
2017-08-10T10:59:26.496Z,40.30
2017-08-10T11:01:54.023Z,40.30
2017-08-10T11:04:22.307Z,40.70
2017-08-10T11:06:49.808Z,40.70
2017-08-10T11:09:17.349Z,41.10
2017-08-10T11:11:44.863Z,41.50
2017-08-10T11:14:13.142Z,41.70
2017-08-10T11:16:41.439Z,42.70
2017-08-10T11:19:08.948Z,42.70
2017-08-10T11:21:36.578Z,42.00
2017-08-10T11:24:04.111Z,43.90
2017-08-10T11:26:31.622Z,43.40
2017-08-10T11:28:59.139Z,43.70
2017-08-10T11:31:26.663Z,43.60
2017-08-10T11:33:54.186Z,44.40
2017-08-10T11:36:21.698Z,43.80
2017-08-10T11:38:50.108Z,45.30
2017-08-10T11:41:17.603Z,45.30
2017-08-10T11:43:45.125Z,45.50
2017-08-10T11:46:12.699Z,46.00
2017-08-10T11:48:40.212Z,44.70
2017-08-10T11:51:08.476Z,48.60
2017-08-10T11:53:36.791Z,47.00
2017-08-10T11:56:04.291Z,46.90
2017-08-10T11:58:31.795Z,48.70
2017-08-10T12:00:59.347Z,49.20
2017-08-10T12:03:26.844Z,48.90
2017-08-10T12:05:54.352Z,50.00
2017-08-10T12:08:22.658Z,52.30
2017-08-10T12:10:50.175Z,52.30
2017-08-10T12:13:18.496Z,52.60
2017-08-10T12:15:46.023Z,52.50
2017-08-10T12:18:14.309Z,52.40
2017-08-10T12:20:41.826Z,52.30
2017-08-10T12:23:09.370Z,51.70
2017-08-10T12:25:36.872Z,52.90
2017-08-10T12:28:05.154Z,52.60
2017-08-10T12:30:32.680Z,52.10
2017-08-10T12:33:00.176Z,52.20
2017-08-10T12:35:27.676Z,54.40
2017-08-10T12:37:55.218Z,53.20
2017-08-10T12:40:22.735Z,53.80
2017-08-10T12:42:51.014Z,54.80
2017-08-10T12:45:19.338Z,54.00
2017-08-10T12:47:46.859Z,53.90
2017-08-10T12:50:14.369Z,54.80
2017-08-10T12:52:41.906Z,55.40
2017-08-10T12:55:09.429Z,55.80
2017-08-10T12:57:37.695Z,55.10
2017-08-10T13:00:05.984Z,54.40
2017-08-10T13:02:33.484Z,54.40
2017-08-10T13:05:00.999Z,55.30
2017-08-10T13:07:28.551Z,55.30
2017-08-10T13:09:56.825Z,53.40
2017-08-10T13:12:25.110Z,54.00
2017-08-10T13:14:52.709Z,54.00
2017-08-10T13:17:20.226Z,54.60
2017-08-10T13:19:47.743Z,54.30
2017-08-10T13:22:15.286Z,54.30
2017-08-10T13:24:42.811Z,55.30
2017-08-10T13:27:11.131Z,54.90
2017-08-10T13:29:38.661Z,54.90
2017-08-10T13:32:06.967Z,54.30
2017-08-10T13:34:34.487Z,54.20
2017-08-10T13:37:02.779Z,54.20
2017-08-10T13:39:30.286Z,54.20
2017-08-10T13:41:57.789Z,53.00
2017-08-10T13:44:26.084Z,54.70
2017-08-10T13:46:53.598Z,54.70
2017-08-10T13:49:21.214Z,53.50
2017-08-10T13:51:48.769Z,54.60
2017-08-10T13:54:16.306Z,54.90
2017-08-10T13:56:43.859Z,56.40
2017-08-10T13:59:12.167Z,57.00
2017-08-10T14:01:39.687Z,57.00
2017-08-10T14:04:07.994Z,57.50
2017-08-10T14:06:35.514Z,57.00
2017-08-10T14:09:03.781Z,56.30
2017-08-10T14:11:31.312Z,56.70
2017-08-10T14:13:58.822Z,57.40
2017-08-10T14:16:27.086Z,57.50
2017-08-10T14:18:55.410Z,58.40
2017-08-10T14:21:22.913Z,57.80
2017-08-10T14:23:50.449Z,57.30
2017-08-10T14:26:17.986Z,58.60
2017-08-10T14:28:45.484Z,58.50
2017-08-10T14:31:13.002Z,59.00
2017-08-10T14:33:40.528Z,58.80
2017-08-10T14:36:08.043Z,59.40
2017-08-10T14:38:35.548Z,58.50
2017-08-10T14:41:03.098Z,56.90
2017-08-10T14:43:31.365Z,54.90
2017-08-10T14:45:59.628Z,54.80
2017-08-10T14:48:27.206Z,54.80
2017-08-10T14:50:55.471Z,55.20
2017-08-10T14:53:23.770Z,54.60
2017-08-10T14:55:51.300Z,54.60
2017-08-10T14:58:18.818Z,55.40
2017-08-10T15:00:46.335Z,55.40
2017-08-10T15:03:14.619Z,55.90
2017-08-10T15:05:42.147Z,55.80
2017-08-10T15:08:09.652Z,55.40
2017-08-10T15:10:37.184Z,56.50
2017-08-10T15:13:05.478Z,56.10
2017-08-10T15:15:32.998Z,56.00
2017-08-10T15:18:00.616Z,56.70
2017-08-10T15:20:28.120Z,57.20
2017-08-10T15:22:55.643Z,57.30
2017-08-10T15:25:23.159Z,57.40
2017-08-10T15:27:51.463Z,59.10
2017-08-10T15:30:19.024Z,58.50
2017-08-10T15:32:46.535Z,59.00
2017-08-10T15:35:14.823Z,58.40
2017-08-10T15:37:43.120Z,59.40
2017-08-10T15:40:10.638Z,59.30
2017-08-10T15:42:38.155Z,59.90
2017-08-10T15:45:05.701Z,59.10
2017-08-10T15:47:33.788Z,59.70
2017-08-10T15:50:01.341Z,59.20
2017-08-10T15:52:29.558Z,59.90
2017-08-10T15:54:57.081Z,60.20
2017-08-10T15:57:24.736Z,60.40
2017-08-10T15:59:52.236Z,61.20
2017-08-10T16:02:19.855Z,61.10
2017-08-10T16:04:47.413Z,61.70
2017-08-10T16:07:14.973Z,61.80
2017-08-10T16:09:42.496Z,60.30
2017-08-10T16:12:10.787Z,59.90
2017-08-10T16:14:38.303Z,59.90
2017-08-10T16:17:05.813Z,60.00
2017-08-10T16:19:33.344Z,60.50
2017-08-10T16:22:01.622Z,60.70
2017-08-10T16:24:29.934Z,60.90
2017-08-10T16:26:57.477Z,60.80
2017-08-10T16:29:24.990Z,61.70
2017-08-10T16:31:52.509Z,63.80
2017-08-10T16:34:20.046Z,64.30
2017-08-10T16:36:47.544Z,65.20
2017-08-10T16:39:15.063Z,65.30
2017-08-10T16:41:42.568Z,67.10
2017-08-10T16:44:10.071Z,69.40
2017-08-10T16:46:38.390Z,73.10
2017-08-10T16:49:05.910Z,73.00
2017-08-10T16:51:33.422Z,73.80
2017-08-10T16:54:00.960Z,74.80
2017-08-10T16:56:28.478Z,75.50
2017-08-10T16:58:56.783Z,76.80
2017-08-10T17:01:24.346Z,76.70
2017-08-10T17:03:51.871Z,77.80
2017-08-10T17:06:20.144Z,78.80
2017-08-10T17:08:48.444Z,79.50
2017-08-10T17:11:15.961Z,79.50
2017-08-10T17:13:43.487Z,80.50
2017-08-10T17:16:11.034Z,81.20
2017-08-10T17:18:38.540Z,81.00
2017-08-10T17:21:06.048Z,81.80
2017-08-10T17:23:33.585Z,81.60
2017-08-10T17:26:01.113Z,81.60
2017-08-10T17:28:28.621Z,82.30
2017-08-10T17:30:56.160Z,82.60
2017-08-10T17:33:23.664Z,82.90
2017-08-10T17:35:51.182Z,83.40
2017-08-10T17:38:18.717Z,83.90
2017-08-10T17:40:47.006Z,84.30
2017-08-10T17:46:05.292Z,84.80
2017-08-10T17:48:32.824Z,83.30
2017-08-10T17:51:01.118Z,83.00
2017-08-10T17:53:28.623Z,82.90
2017-08-10T17:55:56.157Z,83.80
2017-08-10T17:58:23.673Z,83.50
2017-08-10T18:00:51.198Z,84.50
2017-08-10T18:03:18.724Z,83.20
2017-08-10T18:05:46.242Z,81.70
2017-08-10T18:08:14.507Z,84.40
2017-08-10T18:10:42.027Z,84.30
2017-08-10T18:13:09.546Z,85.30
2017-08-10T18:15:37.065Z,85.60
2017-08-10T18:18:04.592Z,85.50
2017-08-10T18:20:32.113Z,86.00
2017-08-10T18:23:00.419Z,87.50
2017-08-10T18:25:27.944Z,87.40
2017-08-10T18:27:56.221Z,87.30
2017-08-10T18:30:24.520Z,88.00
2017-08-10T18:32:52.042Z,88.00
2017-08-10T18:35:19.655Z,88.30
2017-08-10T18:37:47.198Z,87.80
2017-08-10T18:40:14.718Z,86.30
2017-08-10T18:42:42.221Z,86.70
2017-08-10T18:45:09.751Z,87.50
2017-08-10T18:47:38.064Z,87.20
2017-08-10T18:50:05.598Z,87.20
2017-08-10T18:52:33.123Z,88.10
2017-08-10T18:55:00.619Z,88.20
2017-08-10T18:57:28.120Z,88.30
2017-08-10T18:59:55.648Z,89.20
2017-08-10T19:02:23.211Z,89.10
2017-08-10T19:04:50.738Z,89.30
2017-08-10T19:07:19.032Z,90.40
2017-08-10T19:09:46.570Z,90.40
2017-08-10T19:12:14.882Z,90.90
2017-08-10T19:14:42.430Z,90.90
2017-08-10T19:17:10.014Z,91.00
2017-08-10T19:19:37.534Z,91.40
2017-08-10T19:22:05.067Z,92.10
2017-08-10T19:24:32.573Z,92.60
2017-08-10T19:27:00.094Z,92.50
2017-08-10T19:29:28.409Z,92.30
2017-08-10T19:31:55.912Z,92.30
2017-08-10T19:34:23.412Z,92.60
2017-08-10T19:36:50.953Z,92.90
2017-08-10T19:39:19.219Z,93.50
2017-08-10T19:41:47.487Z,93.80
2017-08-10T19:44:15.024Z,93.70
2017-08-10T19:46:42.545Z,94.00
2017-08-10T19:49:10.117Z,94.20
2017-08-10T19:51:37.666Z,94.20
2017-08-10T19:54:05.180Z,94.00
2017-08-10T19:56:32.689Z,93.80
2017-08-10T19:59:00.246Z,93.80
2017-08-10T20:01:27.748Z,93.90
2017-08-10T20:03:55.262Z,93.90
2017-08-10T20:06:22.787Z,93.80
2017-08-10T20:08:51.052Z,93.90
2017-08-10T20:11:19.343Z,94.00
2017-08-10T20:13:47.650Z,93.60
2017-08-10T20:16:15.211Z,93.60
2017-08-10T20:18:42.726Z,93.40
2017-08-10T20:21:11.020Z,93.20
2017-08-10T20:23:38.533Z,93.20
2017-08-10T20:26:06.031Z,93.40
2017-08-10T20:28:34.345Z,93.40
2017-08-10T20:31:01.896Z,93.40
2017-08-10T20:33:29.427Z,93.20
2017-08-10T20:35:56.974Z,93.20
2017-08-10T20:38:25.255Z,93.50
2017-08-10T20:40:53.524Z,93.70
2017-08-10T20:43:21.834Z,94.00
2017-08-10T20:45:49.353Z,93.90
2017-08-10T20:48:16.853Z,94.10
2017-08-10T20:50:44.418Z,94.00
2017-08-10T20:53:11.929Z,94.10
2017-08-10T20:55:39.534Z,94.20
2017-08-10T20:58:07.059Z,94.40
2017-08-10T21:00:35.341Z,94.60
2017-08-10T21:03:03.631Z,94.50
2017-08-10T21:05:31.153Z,94.50
2017-08-10T21:07:58.660Z,94.10
2017-08-10T21:10:26.199Z,93.60
2017-08-10T21:12:54.485Z,93.50
2017-08-10T21:15:22.001Z,93.50
2017-08-10T21:17:49.538Z,93.50
2017-08-10T21:20:17.039Z,93.60
2017-08-10T21:22:45.451Z,93.90
2017-08-10T21:25:12.952Z,93.90
2017-08-10T21:27:40.468Z,93.90
2017-08-10T21:30:08.015Z,93.90
2017-08-10T21:32:35.519Z,94.00
2017-08-10T21:35:03.028Z,94.20
2017-08-10T21:37:30.580Z,94.30
2017-08-10T21:39:58.095Z,94.40
2017-08-10T21:42:25.600Z,94.50
2017-08-10T21:44:53.145Z,94.50
2017-08-10T21:47:20.652Z,94.20
2017-08-10T21:49:48.190Z,93.80
2017-08-10T21:52:15.733Z,93.90
2017-08-10T21:54:43.239Z,93.90
2017-08-10T21:57:10.748Z,94.00
2017-08-10T21:59:38.317Z,94.10
2017-08-10T22:02:05.850Z,94.10
2017-08-10T22:04:34.124Z,94.30
2017-08-10T22:07:02.420Z,94.40
2017-08-10T22:09:29.998Z,94.40
2017-08-10T22:11:57.555Z,94.40
2017-08-10T22:14:25.141Z,94.40
2017-08-10T22:16:52.659Z,94.30
2017-08-10T22:19:20.141Z,94.30
2017-08-10T22:21:47.661Z,94.30
2017-08-10T22:24:15.946Z,94.20
2017-08-10T22:26:43.451Z,94.20
2017-08-10T22:29:10.999Z,94.10
2017-08-10T22:31:38.499Z,94.10
2017-08-10T22:34:06.026Z,94.10
2017-08-10T22:36:34.320Z,93.80
2017-08-10T22:39:01.901Z,93.80
2017-08-10T22:41:29.422Z,93.70
2017-08-10T22:43:57.713Z,93.90
2017-08-10T22:46:25.201Z,93.80
2017-08-10T22:48:52.751Z,93.90
2017-08-10T22:51:20.278Z,94.10
2017-08-10T22:53:48.565Z,94.20
2017-08-10T22:56:16.067Z,94.20
2017-08-10T22:58:43.595Z,94.00
2017-08-10T23:01:11.114Z,94.00
2017-08-10T23:03:38.620Z,93.90
2017-08-10T23:06:06.166Z,93.50
2017-08-10T23:08:33.668Z,93.20
2017-08-10T23:11:01.177Z,93.10
2017-08-10T23:13:28.722Z,93.10
2017-08-10T23:15:57.030Z,93.40
2017-08-10T23:18:24.531Z,93.40
2017-08-10T23:20:52.151Z,93.60
2017-08-10T23:23:19.674Z,93.50
2017-08-10T23:25:47.959Z,93.20
2017-08-10T23:28:16.263Z,93.30
2017-08-10T23:30:43.786Z,93.20
2017-08-10T23:33:12.073Z,93.60
2017-08-10T23:35:39.654Z,93.50
2017-08-10T23:38:07.151Z,93.40
2017-08-10T23:40:34.672Z,93.60
2017-08-10T23:43:02.208Z,94.00
2017-08-10T23:45:29.721Z,93.80
2017-08-10T23:47:57.224Z,93.70
2017-08-10T23:50:24.769Z,93.60
2017-08-10T23:52:53.047Z,93.70
2017-08-10T23:55:21.342Z,93.90
2017-08-10T23:57:48.912Z,93.80
